Time;durP1;ratioP1;P1;durP2;ratioP2;P2;SDS_P1;SDS_P2;PMS_P1;PMS_P2;Temp;Humidity;BMP_temperature;BMP_pressure;BME280_temperature;BME280_humidity;BME280_pressure;Samples;Min_cycle;Max_cycle;Signal;HPM_P1;HPM_P2
2021/12/31 00:01:09;;;;;;;1.10;1.03;;;13.50;99.90;;;;;;5053098;28;20388;-65
2021/12/31 00:03:35;;;;;;;1.40;1.30;;;13.50;99.90;;;;;;5053298;28;20244;-64
2021/12/31 00:06:01;;;;;;;0.77;0.70;;;13.50;99.90;;;;;;5053243;28;20283;-64
2021/12/31 00:08:28;;;;;;;0.70;0.60;;;13.60;99.90;;;;;;5053572;28;20865;-64
2021/12/31 00:10:59;;;;;;;0.77;0.77;;;13.50;99.90;;;;;;5053544;28;20418;-64
2021/12/31 00:13:25;;;;;;;1.00;0.90;;;13.50;99.90;;;;;;5053221;28;20610;-63
2021/12/31 00:15:51;;;;;;;0.53;0.53;;;13.60;99.90;;;;;;5053431;28;20409;-65
2021/12/31 00:18:17;;;;;;;0.67;0.67;;;13.60;99.90;;;;;;5053264;28;20431;-65
2021/12/31 00:20:42;;;;;;;0.83;0.83;;;13.60;99.90;;;;;;5053186;28;20179;-63
2021/12/31 00:23:11;;;;;;;1.17;1.07;;;13.60;99.90;;;;;;5053068;28;20176;-64
2021/12/31 00:25:39;;;;;;;1.03;1.03;;;13.60;99.90;;;;;;5052040;28;20172;-64
2021/12/31 00:28:05;;;;;;;1.23;1.10;;;13.50;99.90;;;;;;5053157;28;20518;-65
2021/12/31 00:30:31;;;;;;;1.30;1.30;;;13.60;99.90;;;;;;5053164;28;20453;-64
2021/12/31 00:32:58;;;;;;;0.70;0.70;;;13.60;99.90;;;;;;5052830;28;20243;-65
2021/12/31 00:35:24;;;;;;;1.47;1.37;;;13.50;99.90;;;;;;5053239;28;20897;-65
2021/12/31 00:37:49;;;;;;;0.50;0.50;;;13.50;99.90;;;;;;5052899;28;20493;-64
2021/12/31 00:40:17;;;;;;;0.90;0.90;;;13.50;99.90;;;;;;5052993;28;20214;-65
2021/12/31 00:42:43;;;;;;;0.80;0.80;;;13.50;99.90;;;;;;5052691;28;20377;-64
2021/12/31 00:45:11;;;;;;;0.80;0.80;;;13.50;99.90;;;;;;5053061;28;20549;-64
2021/12/31 00:47:37;;;;;;;0.80;0.80;;;13.50;99.90;;;;;;5052851;28;20568;-63
2021/12/31 00:50:04;;;;;;;1.00;1.00;;;13.50;99.90;;;;;;5053791;28;20443;-64
2021/12/31 00:52:30;;;;;;;1.63;0.83;;;13.40;99.90;;;;;;5056827;28;20777;-64
2021/12/31 00:54:55;;;;;;;1.00;1.00;;;13.40;99.90;;;;;;5057376;28;20406;-64
2021/12/31 00:57:21;;;;;;;0.50;0.50;;;13.40;99.90;;;;;;5055814;28;20688;-64
2021/12/31 00:59:46;;;;;;;0.90;0.87;;;13.40;99.90;;;;;;5072123;28;20249;-64
2021/12/31 01:02:13;;;;;;;1.40;0.90;;;13.40;99.90;;;;;;5076639;28;20172;-65
2021/12/31 01:04:40;;;;;;;1.37;1.30;;;13.50;99.90;;;;;;5075556;28;20274;-63
2021/12/31 01:07:06;;;;;;;1.00;1.00;;;13.40;99.90;;;;;;5076776;28;20534;-64
2021/12/31 01:09:32;;;;;;;0.87;0.80;;;13.40;99.90;;;;;;5076952;28;20904;-63
2021/12/31 01:11:58;;;;;;;0.83;0.83;;;13.50;99.90;;;;;;5076253;28;20412;-64
2021/12/31 01:16:57;;;;;;;0.90;0.90;;;13.40;99.90;;;;;;5076597;28;20411;-64
2021/12/31 01:21:51;;;;;;;0.70;0.70;;;13.40;99.90;;;;;;5076269;28;20452;-64
2021/12/31 01:24:18;;;;;;;1.30;1.30;;;13.30;99.90;;;;;;5076626;28;20803;-64
2021/12/31 01:26:45;;;;;;;1.30;1.10;;;13.30;99.90;;;;;;5076278;28;20204;-64
2021/12/31 01:29:11;;;;;;;1.20;1.10;;;13.30;99.90;;;;;;5076455;28;20824;-64
2021/12/31 01:31:36;;;;;;;1.00;1.00;;;13.30;99.90;;;;;;5076192;28;20444;-65
2021/12/31 01:34:02;;;;;;;2.33;2.17;;;13.30;99.90;;;;;;5076633;28;20182;-64
2021/12/31 01:36:28;;;;;;;1.00;1.00;;;13.30;99.90;;;;;;5076321;28;20195;-64
2021/12/31 01:38:54;;;;;;;1.30;1.20;;;13.30;99.90;;;;;;5076362;28;20624;-64
2021/12/31 01:41:21;;;;;;;2.20;1.67;;;13.30;99.90;;;;;;5075648;28;20452;-64
2021/12/31 01:43:47;;;;;;;2.20;1.30;;;13.20;99.90;;;;;;5076075;28;20412;-64
2021/12/31 01:46:13;;;;;;;1.47;1.40;;;13.20;99.90;;;;;;5075968;28;20505;-65
2021/12/31 01:51:24;;;;;;;2.43;2.23;;;13.20;99.90;;;;;;5075670;28;20163;-64
2021/12/31 01:53:50;;;;;;;2.60;2.40;;;13.20;99.90;;;;;;5076042;28;20415;-64
2021/12/31 01:56:18;;;;;;;1.23;1.13;;;13.20;99.90;;;;;;5075904;28;20407;-63
2021/12/31 01:58:47;;;;;;;1.50;1.50;;;13.20;99.90;;;;;;5069490;28;20234;-64
2021/12/31 02:01:13;;;;;;;0.60;0.60;;;13.20;99.90;;;;;;5054947;28;20388;-63
2021/12/31 02:03:38;;;;;;;1.23;0.90;;;13.20;99.90;;;;;;5054901;28;20411;-64
2021/12/31 02:06:05;;;;;;;1.00;0.63;;;13.10;99.90;;;;;;5055580;28;20203;-65
2021/12/31 02:08:31;;;;;;;0.67;0.67;;;13.10;99.90;;;;;;5055494;28;20651;-63
2021/12/31 02:10:57;;;;;;;1.13;0.83;;;13.00;99.90;;;;;;5055554;28;20402;-64
2021/12/31 02:13:24;;;;;;;0.70;0.70;;;13.00;99.90;;;;;;5055312;28;20488;-64
2021/12/31 02:15:51;;;;;;;0.60;0.60;;;12.90;99.90;;;;;;5055546;28;20780;-63
2021/12/31 02:18:17;;;;;;;1.03;0.93;;;12.90;99.90;;;;;;5055406;28;20435;-64
2021/12/31 02:20:46;;;;;;;0.70;0.70;;;12.80;99.90;;;;;;5055467;28;20420;-64
2021/12/31 02:23:20;;;;;;;0.77;0.77;;;12.80;99.90;;;;;;5054942;28;20402;-64
2021/12/31 02:25:46;;;;;;;1.50;1.40;;;12.70;99.90;;;;;;5055236;28;20648;-63
2021/12/31 02:28:11;;;;;;;0.70;0.70;;;12.70;99.90;;;;;;5055268;28;20528;-64
2021/12/31 02:30:37;;;;;;;0.77;0.77;;;12.60;99.90;;;;;;5055223;28;20194;-64
2021/12/31 02:33:04;;;;;;;1.13;1.07;;;12.50;99.90;;;;;;5054629;28;20918;-64
2021/12/31 02:35:34;;;;;;;0.80;0.80;;;12.50;99.90;;;;;;5055153;28;20304;-64
2021/12/31 02:38:00;;;;;;;0.60;0.60;;;12.40;99.90;;;;;;5054964;28;20429;-65
2021/12/31 02:40:28;;;;;;;1.37;0.90;;;12.30;99.90;;;;;;5055046;28;20551;-64
2021/12/31 02:42:55;;;;;;;1.27;1.13;;;12.20;99.90;;;;;;5054827;28;20412;-65
2021/12/31 02:45:28;;;;;;;0.93;0.90;;;12.10;99.90;;;;;;5055152;28;20628;-65
2021/12/31 02:47:54;;;;;;;1.55;1.45;;;12.10;99.90;;;;;;5054899;28;20460;-64
2021/12/31 02:50:30;;;;;;;1.30;0.70;;;12.00;99.90;;;;;;5054979;28;20177;-64
2021/12/31 02:52:56;;;;;;;0.40;0.40;;;11.90;99.90;;;;;;5054628;28;20257;-64
2021/12/31 02:55:22;;;;;;;1.08;0.93;;;11.80;99.90;;;;;;5055014;28;20520;-64
2021/12/31 02:57:48;;;;;;;0.70;0.70;;;11.70;99.90;;;;;;5054692;28;20202;-64
2021/12/31 03:00:14;;;;;;;1.08;1.00;;;11.60;99.90;;;;;;5073337;28;20661;-64
2021/12/31 03:02:42;;;;;;;2.15;1.17;;;11.50;99.90;;;;;;5074456;28;20178;-63
2021/12/31 03:05:08;;;;;;;0.73;0.73;;;11.50;99.90;;;;;;5074511;28;20196;-63
2021/12/31 03:07:36;;;;;;;0.98;0.98;;;11.40;99.90;;;;;;5074473;28;20246;-65
2021/12/31 03:10:03;;;;;;;0.90;0.75;;;11.30;99.90;;;;;;5074650;28;20161;-63
2021/12/31 03:12:29;;;;;;;1.35;1.02;;;11.20;99.90;;;;;;5073954;28;20569;-63
2021/12/31 03:14:55;;;;;;;0.90;0.90;;;11.10;99.90;;;;;;5074331;28;20160;-64
2021/12/31 03:17:23;;;;;;;0.80;0.80;;;11.00;99.90;;;;;;5074232;28;20184;-64
2021/12/31 03:19:49;;;;;;;0.88;0.85;;;11.00;99.90;;;;;;5074497;28;20177;-63
2021/12/31 03:22:16;;;;;;;1.97;1.23;;;10.90;99.90;;;;;;5074101;28;20531;-63
2021/12/31 03:24:41;;;;;;;0.80;0.80;;;10.80;99.90;;;;;;5074297;28;20407;-64
2021/12/31 03:27:07;;;;;;;0.87;0.70;;;10.80;99.90;;;;;;5073889;28;20215;-63
2021/12/31 03:29:33;;;;;;;0.80;0.80;;;10.70;99.90;;;;;;5074070;28;20559;-65
2021/12/31 03:31:58;;;;;;;0.80;0.80;;;10.70;99.90;;;;;;5073739;28;20247;-63
2021/12/31 03:34:24;;;;;;;1.03;0.83;;;10.70;99.90;;;;;;5074068;28;20395;-63
2021/12/31 03:36:50;;;;;;;0.90;0.90;;;10.60;99.90;;;;;;5072733;28;20212;-63
2021/12/31 03:39:16;;;;;;;0.90;0.90;;;10.50;99.90;;;;;;5074086;28;20627;-64
2021/12/31 03:41:44;;;;;;;1.17;1.07;;;10.50;99.90;;;;;;5073587;28;20488;-63
2021/12/31 03:44:09;;;;;;;0.70;0.70;;;10.50;99.90;;;;;;5074010;28;20212;-63
2021/12/31 03:46:35;;;;;;;1.20;1.10;;;10.40;99.90;;;;;;5073700;28;20228;-63
2021/12/31 03:49:00;;;;;;;0.90;0.90;;;10.30;99.90;;;;;;5074135;28;20230;-63
2021/12/31 03:51:26;;;;;;;1.53;1.00;;;10.30;99.90;;;;;;5073466;28;20169;-63
2021/12/31 03:53:52;;;;;;;0.73;0.67;;;10.30;99.90;;;;;;5073863;28;20264;-64
2021/12/31 03:56:21;;;;;;;0.80;0.80;;;10.30;99.90;;;;;;5073588;28;20547;-64
2021/12/31 03:58:46;;;;;;;1.27;1.10;;;10.20;99.90;;;;;;5067114;28;20513;-64
2021/12/31 04:01:12;;;;;;;1.07;0.90;;;10.20;99.90;;;;;;5053399;28;20184;-64
2021/12/31 04:03:37;;;;;;;1.40;1.30;;;10.20;99.90;;;;;;5053399;28;20185;-63
2021/12/31 04:06:03;;;;;;;0.80;0.80;;;10.20;99.90;;;;;;5053401;28;20226;-64
2021/12/31 04:08:29;;;;;;;0.67;0.60;;;10.10;99.90;;;;;;5053442;28;20598;-63
2021/12/31 04:10:54;;;;;;;1.27;1.20;;;10.10;99.90;;;;;;5053497;28;20640;-64
2021/12/31 04:13:20;;;;;;;0.97;0.97;;;10.00;99.90;;;;;;5053827;28;20226;-63
2021/12/31 04:15:46;;;;;;;1.20;1.10;;;10.10;99.90;;;;;;5053355;28;20173;-63
2021/12/31 04:18:11;;;;;;;1.00;1.00;;;10.00;99.90;;;;;;5053238;28;20662;-63
2021/12/31 04:20:44;;;;;;;1.63;1.57;;;10.00;99.90;;;;;;5053644;28;20197;-63
2021/12/31 04:23:28;;;;;;;1.02;1.00;;;10.00;99.90;;;;;;5052943;28;20161;-64
2021/12/31 04:25:54;;;;;;;1.40;1.00;;;10.00;99.90;;;;;;5052494;28;20223;-63
2021/12/31 04:28:20;;;;;;;0.73;0.70;;;10.00;99.90;;;;;;5053617;28;20175;-63
2021/12/31 04:30:46;;;;;;;1.10;1.10;;;10.00;99.90;;;;;;5053233;28;20157;-64
2021/12/31 04:33:11;;;;;;;0.93;0.83;;;10.00;99.90;;;;;;5052953;28;20172;-64
2021/12/31 04:35:37;;;;;;;0.90;0.90;;;9.90;99.90;;;;;;5053275;28;20169;-65
2021/12/31 04:38:02;;;;;;;0.60;0.60;;;9.90;99.90;;;;;;5053215;28;20551;-64
2021/12/31 04:40:28;;;;;;;0.70;0.70;;;9.90;99.90;;;;;;5053741;28;20170;-64
2021/12/31 04:42:54;;;;;;;0.90;0.90;;;9.90;99.90;;;;;;5052784;28;20173;-63
2021/12/31 04:45:20;;;;;;;0.87;0.87;;;9.90;99.90;;;;;;5053167;28;20174;-63
2021/12/31 04:47:46;;;;;;;1.17;0.95;;;9.90;99.90;;;;;;5052994;28;20282;-63
2021/12/31 04:50:12;;;;;;;1.17;1.07;;;9.90;99.90;;;;;;5053169;28;20204;-63
2021/12/31 04:52:38;;;;;;;1.30;1.20;;;9.80;99.90;;;;;;5052536;28;20411;-63
2021/12/31 04:55:04;;;;;;;1.33;1.23;;;9.80;99.90;;;;;;5053239;28;20166;-63
2021/12/31 04:57:30;;;;;;;0.88;0.88;;;9.80;99.90;;;;;;5052950;28;20196;-63
2021/12/31 04:59:56;;;;;;;1.57;1.10;;;9.80;99.90;;;;;;5069192;28;20169;-63
2021/12/31 05:02:21;;;;;;;0.93;0.93;;;9.80;99.90;;;;;;5072569;28;20211;-63
2021/12/31 05:04:47;;;;;;;1.20;1.10;;;9.80;99.90;;;;;;5072988;28;20189;-63
2021/12/31 05:07:13;;;;;;;1.30;1.20;;;9.80;99.90;;;;;;5072914;28;20228;-64
2021/12/31 05:09:38;;;;;;;1.03;1.03;;;9.80;99.90;;;;;;5072849;28;20619;-64
2021/12/31 05:12:05;;;;;;;1.10;1.10;;;9.80;99.90;;;;;;5072623;28;20611;-63
2021/12/31 05:14:31;;;;;;;0.75;0.75;;;9.80;99.90;;;;;;5072837;28;20165;-64
2021/12/31 05:16:58;;;;;;;0.90;0.90;;;9.80;99.90;;;;;;5072823;28;20721;-64
2021/12/31 05:19:24;;;;;;;0.70;0.70;;;9.70;99.90;;;;;;5072924;28;20419;-63
2021/12/31 05:21:50;;;;;;;1.52;1.42;;;9.70;99.90;;;;;;5072492;28;20252;-64
2021/12/31 05:24:16;;;;;;;1.23;1.23;;;9.70;99.90;;;;;;5072761;28;20247;-64
2021/12/31 05:26:42;;;;;;;1.60;1.23;;;9.80;99.90;;;;;;5072532;28;20738;-64
2021/12/31 05:29:08;;;;;;;0.90;0.90;;;9.70;99.90;;;;;;5072730;28;20395;-64
2021/12/31 05:31:34;;;;;;;1.30;0.93;;;9.70;99.90;;;;;;5072358;28;20195;-64
2021/12/31 05:33:59;;;;;;;1.43;1.40;;;9.70;99.90;;;;;;5072862;28;20267;-64
2021/12/31 05:36:25;;;;;;;1.40;1.40;;;9.70;99.90;;;;;;5073880;28;20793;-64
2021/12/31 05:38:51;;;;;;;0.80;0.77;;;9.70;99.90;;;;;;5076267;28;20165;-64
2021/12/31 05:41:16;;;;;;;2.03;1.50;;;9.70;99.90;;;;;;5075970;28;20399;-63
2021/12/31 05:43:42;;;;;;;1.13;1.13;;;9.70;99.90;;;;;;5074815;28;20181;-64
2021/12/31 05:46:08;;;;;;;1.17;1.10;;;9.60;99.90;;;;;;5076196;28;20228;-63
2021/12/31 05:48:34;;;;;;;1.33;1.20;;;9.60;99.90;;;;;;5076379;28;20642;-64
2021/12/31 05:50:59;;;;;;;1.13;1.03;;;9.60;99.90;;;;;;5076002;28;20169;-67
2021/12/31 05:53:25;;;;;;;1.40;1.40;;;9.50;99.90;;;;;;5075900;28;20409;-65
2021/12/31 05:55:51;;;;;;;0.80;0.80;;;9.50;99.90;;;;;;5076178;28;20176;-64
2021/12/31 05:58:16;;;;;;;1.33;1.23;;;9.40;99.90;;;;;;5073312;28;20184;-64
2021/12/31 06:00:42;;;;;;;1.03;1.03;;;9.30;99.90;;;;;;5055788;28;20216;-64
2021/12/31 06:03:08;;;;;;;1.30;1.30;;;9.30;99.90;;;;;;5054094;28;20232;-64
2021/12/31 06:05:33;;;;;;;1.30;1.17;;;9.20;99.90;;;;;;5055971;28;20178;-64
2021/12/31 06:07:59;;;;;;;1.13;1.10;;;9.10;99.90;;;;;;5055627;28;20743;-64
2021/12/31 06:10:26;;;;;;;1.20;1.17;;;9.00;99.90;;;;;;5055757;28;20196;-63
2021/12/31 06:12:55;;;;;;;0.93;0.93;;;9.00;99.90;;;;;;5055503;28;20218;-63
2021/12/31 06:15:21;;;;;;;1.25;1.25;;;8.90;99.90;;;;;;5055498;28;20165;-64
2021/12/31 06:17:47;;;;;;;1.87;1.77;;;8.90;99.90;;;;;;5055621;28;20193;-64
2021/12/31 06:20:13;;;;;;;2.20;1.80;;;8.80;99.90;;;;;;5055861;28;20407;-64
2021/12/31 06:22:39;;;;;;;1.37;1.27;;;8.80;99.90;;;;;;5055142;28;20624;-63
2021/12/31 06:25:05;;;;;;;1.30;1.30;;;8.80;99.90;;;;;;5055444;28;20195;-64
2021/12/31 06:27:30;;;;;;;1.67;1.58;;;8.70;99.90;;;;;;5055220;28;20228;-63
2021/12/31 06:29:56;;;;;;;2.07;1.63;;;8.70;99.90;;;;;;5055788;28;20624;-63
2021/12/31 06:32:22;;;;;;;1.80;1.07;;;8.70;99.90;;;;;;5055130;28;20165;-64
2021/12/31 06:34:47;;;;;;;4.90;1.50;;;8.60;99.90;;;;;;5055332;28;20176;-64
2021/12/31 06:37:13;;;;;;;1.10;1.10;;;8.60;99.90;;;;;;5055430;28;20216;-64
2021/12/31 06:39:41;;;;;;;1.23;1.20;;;8.50;99.90;;;;;;5055215;28;20200;-63
2021/12/31 06:42:07;;;;;;;1.60;1.50;;;8.50;99.90;;;;;;5054694;28;20169;-63
2021/12/31 06:44:34;;;;;;;1.13;1.13;;;8.50;99.90;;;;;;5055278;28;20173;-65
2021/12/31 06:47:00;;;;;;;1.70;1.60;;;8.40;99.90;;;;;;5057055;28;20208;-63
2021/12/31 06:49:25;;;;;;;1.53;1.43;;;8.40;99.90;;;;;;5071165;28;20597;-64
2021/12/31 06:51:51;;;;;;;2.40;2.30;;;8.40;99.90;;;;;;5071062;28;20252;-63
2021/12/31 06:54:17;;;;;;;1.93;1.83;;;8.40;99.90;;;;;;5055228;28;20295;-64
2021/12/31 06:56:42;;;;;;;1.27;1.27;;;8.40;99.90;;;;;;5077315;28;20206;-63
2021/12/31 06:59:08;;;;;;;1.17;1.17;;;8.40;99.90;;;;;;5085127;28;20172;-63
2021/12/31 07:01:33;;;;;;;2.10;1.37;;;8.40;99.90;;;;;;5074353;28;20200;-63
2021/12/31 07:03:59;;;;;;;1.70;1.57;;;8.40;99.90;;;;;;5074329;28;20212;-63
2021/12/31 07:06:24;;;;;;;1.70;1.60;;;8.30;99.90;;;;;;5074311;28;20207;-64
2021/12/31 07:08:50;;;;;;;1.10;1.10;;;8.30;99.90;;;;;;5074742;28;20161;-63
2021/12/31 07:11:17;;;;;;;1.73;1.63;;;8.20;99.90;;;;;;5074115;28;20566;-63
2021/12/31 07:13:43;;;;;;;1.77;1.05;;;8.30;99.90;;;;;;5074422;28;20157;-63
2021/12/31 07:16:08;;;;;;;1.60;1.50;;;8.30;99.90;;;;;;5073098;28;20179;-63
2021/12/31 07:18:34;;;;;;;1.30;1.20;;;8.30;99.90;;;;;;5074209;28;20486;-63
2021/12/31 07:21:00;;;;;;;3.47;1.60;;;8.40;99.90;;;;;;5073987;28;20259;-67
2021/12/31 07:23:25;;;;;;;5.30;2.00;;;8.40;99.90;;;;;;5074105;28;20248;-63
2021/12/31 07:25:51;;;;;;;1.57;1.47;;;8.50;99.90;;;;;;5074010;28;20163;-63
2021/12/31 07:28:17;;;;;;;1.07;1.07;;;8.50;99.90;;;;;;5074022;28;20538;-63
2021/12/31 07:30:45;;;;;;;1.50;1.40;;;8.60;99.90;;;;;;5074062;28;20829;-63
2021/12/31 07:33:19;;;;;;;0.98;0.98;;;8.70;99.90;;;;;;5072390;28;20221;-63
2021/12/31 07:35:46;;;;;;;2.67;1.95;;;8.70;99.90;;;;;;5074122;28;20160;-63
2021/12/31 07:38:20;;;;;;;1.77;1.67;;;8.80;99.90;;;;;;5074021;28;20203;-62
2021/12/31 07:40:46;;;;;;;1.05;1.05;;;8.90;99.90;;;;;;5068543;28;20166;-64
2021/12/31 07:43:13;;;;;;;1.58;1.48;;;9.20;99.90;;;;;;5058823;28;20230;-64
2021/12/31 07:45:39;;;;;;;1.65;1.55;;;9.40;99.90;;;;;;5055018;28;20177;-65
2021/12/31 07:48:05;;;;;;;1.67;1.58;;;9.60;99.90;;;;;;5053605;28;20197;-64
2021/12/31 07:50:32;;;;;;;2.10;2.00;;;9.70;99.90;;;;;;5062297;28;20501;-64
2021/12/31 07:52:58;;;;;;;1.50;1.40;;;9.80;99.90;;;;;;5073284;28;20250;-65
2021/12/31 07:55:24;;;;;;;1.60;1.50;;;9.90;99.90;;;;;;5073763;28;20561;-64
2021/12/31 07:57:49;;;;;;;2.20;1.58;;;10.00;99.90;;;;;;5073538;28;20426;-64
2021/12/31 08:00:15;;;;;;;1.30;1.23;;;10.00;99.90;;;;;;5053560;28;20686;-63
2021/12/31 08:02:41;;;;;;;3.97;1.97;;;10.10;99.90;;;;;;5057568;28;20222;-63
2021/12/31 08:05:08;;;;;;;7.53;4.20;;;10.30;99.90;;;;;;5064011;28;20262;-63
2021/12/31 08:07:33;;;;;;;2.33;2.03;;;10.40;99.90;;;;;;5064120;28;20506;-63
2021/12/31 08:09:59;;;;;;;1.33;1.17;;;10.50;99.90;;;;;;5073402;28;20169;-64
2021/12/31 08:12:25;;;;;;;2.00;1.90;;;10.60;99.90;;;;;;5073081;28;20161;-64
2021/12/31 08:14:50;;;;;;;2.13;1.90;;;10.80;99.90;;;;;;5073170;28;20164;-64
2021/12/31 08:17:16;;;;;;;2.00;1.90;;;10.80;99.90;;;;;;5073010;28;20233;-64
2021/12/31 08:19:42;;;;;;;2.30;2.00;;;10.90;99.90;;;;;;5073214;28;20479;-62
2021/12/31 08:22:08;;;;;;;1.80;1.70;;;11.10;99.90;;;;;;5072933;28;20403;-64
2021/12/31 08:24:34;;;;;;;3.20;2.47;;;11.30;99.90;;;;;;5071278;28;20180;-65
2021/12/31 08:27:00;;;;;;;2.63;2.27;;;11.80;99.90;;;;;;5072728;28;20464;-63
2021/12/31 08:29:25;;;;;;;1.57;1.47;;;12.40;99.90;;;;;;5072687;28;20530;-65
2021/12/31 08:31:51;;;;;;;1.67;1.40;;;13.10;99.90;;;;;;5072580;28;20406;-65
2021/12/31 08:34:17;;;;;;;1.07;1.03;;;13.70;99.90;;;;;;5071932;28;20177;-64
2021/12/31 08:36:42;;;;;;;1.00;0.90;;;14.40;99.90;;;;;;5071988;28;20288;-65
2021/12/31 08:39:08;;;;;;;1.07;1.07;;;14.90;99.90;;;;;;5072421;28;20169;-66
2021/12/31 08:41:38;;;;;;;1.80;1.70;;;15.60;99.90;;;;;;5060460;28;20699;-65
2021/12/31 08:44:05;;;;;;;1.37;1.30;;;16.40;99.90;;;;;;5056010;28;20218;-65
2021/12/31 08:46:32;;;;;;;3.30;1.57;;;17.00;99.90;;;;;;5072597;28;20473;-64
2021/12/31 08:48:58;;;;;;;1.40;1.30;;;17.50;99.90;;;;;;5072712;28;20421;-64
2021/12/31 08:51:25;;;;;;;1.30;1.17;;;17.90;99.90;;;;;;5071570;28;20438;-63
2021/12/31 08:53:51;;;;;;;0.90;0.90;;;18.30;99.90;;;;;;5064804;28;20820;-63
2021/12/31 08:56:17;;;;;;;0.73;0.73;;;18.70;99.90;;;;;;5051901;28;20398;-64
2021/12/31 08:58:43;;;;;;;0.70;0.70;;;19.00;99.90;;;;;;5052464;28;20434;-67
2021/12/31 09:01:08;;;;;;;0.87;0.87;;;19.30;99.90;;;;;;5051538;28;20645;-64
2021/12/31 09:03:34;;;;;;;0.97;0.90;;;19.40;99.90;;;;;;5051635;28;20264;-64
2021/12/31 09:06:00;;;;;;;1.20;1.20;;;19.40;99.90;;;;;;5051644;28;20188;-66
2021/12/31 09:08:25;;;;;;;0.73;0.73;;;19.50;99.90;;;;;;5062227;28;20201;-66
2021/12/31 09:10:51;;;;;;;0.80;0.80;;;19.60;99.90;;;;;;5063180;28;20171;-65
2021/12/31 09:13:17;;;;;;;1.20;1.10;;;19.80;99.90;;;;;;5065226;28;20182;-65
2021/12/31 09:15:42;;;;;;;1.10;1.10;;;19.80;99.90;;;;;;5062786;28;20172;-63
2021/12/31 09:18:08;;;;;;;1.33;0.93;;;20.00;99.90;;;;;;5070206;28;20419;-67
2021/12/31 09:20:34;;;;;;;1.00;1.00;;;20.20;99.90;;;;;;5070648;28;20177;-65
2021/12/31 09:23:00;;;;;;;1.00;1.00;;;20.40;99.90;;;;;;5063258;28;20185;-64
2021/12/31 09:25:26;;;;;;;0.77;0.77;;;20.70;99.90;;;;;;5056208;28;20442;-65
2021/12/31 09:27:52;;;;;;;0.70;0.70;;;20.80;99.90;;;;;;5055698;28;20442;-63
2021/12/31 09:30:17;;;;;;;1.03;0.70;;;20.70;98.50;;;;;;5056049;28;20632;-65
2021/12/31 09:32:43;;;;;;;0.63;0.63;;;20.60;97.80;;;;;;5058660;28;20171;-64
2021/12/31 09:35:09;;;;;;;1.17;0.50;;;20.50;97.90;;;;;;5061487;28;20602;-65
2021/12/31 09:37:34;;;;;;;1.60;0.90;;;20.30;97.90;;;;;;5063941;28;20255;-64
2021/12/31 09:40:01;;;;;;;0.70;0.70;;;20.20;98.70;;;;;;5076007;28;20177;-63
2021/12/31 09:42:26;;;;;;;0.70;0.70;;;20.20;99.90;;;;;;5056417;28;20233;-64
2021/12/31 09:44:52;;;;;;;0.73;0.73;;;20.30;98.50;;;;;;5058961;28;20399;-63
2021/12/31 09:47:18;;;;;;;0.60;0.60;;;20.30;98.40;;;;;;5061180;28;20609;-65
2021/12/31 09:49:46;;;;;;;0.60;0.60;;;20.30;99.20;;;;;;5075823;28;20639;-66
2021/12/31 09:52:13;;;;;;;0.70;0.70;;;20.30;97.90;;;;;;5064765;28;20401;-65
2021/12/31 09:54:48;;;;;;;0.70;0.70;;;20.20;99.30;;;;;;5075827;28;20384;-65
2021/12/31 09:57:21;;;;;;;0.57;0.57;;;20.10;99.30;;;;;;5075661;28;20430;-65
2021/12/31 09:59:47;;;;;;;0.73;0.73;;;20.20;99.00;;;;;;5061237;28;20798;-64
2021/12/31 10:02:15;;;;;;;1.00;0.90;;;20.10;97.50;;;;;;5055574;28;20502;-63
2021/12/31 10:04:55;;;;;;;0.83;0.83;;;20.00;98.80;;;;;;5055561;28;20443;-64
2021/12/31 10:07:23;;;;;;;1.37;0.63;;;19.90;98.70;;;;;;5058699;28;20467;-65
2021/12/31 10:10:07;;;;;;;0.73;0.73;;;19.90;99.70;;;;;;5058678;28;20410;-63
2021/12/31 10:12:52;;;;;;;1.50;1.40;;;19.80;99.90;;;;;;5065855;28;20468;-63
2021/12/31 10:15:22;;;;;;;1.30;1.20;;;19.80;99.50;;;;;;5059579;28;20409;-64
2021/12/31 10:17:48;;;;;;;0.80;0.80;;;19.90;99.80;;;;;;5075295;28;20409;-64
2021/12/31 10:20:14;;;;;;;7.50;4.03;;;19.80;98.50;;;;;;5075594;28;20515;-65
2021/12/31 10:22:40;;;;;;;1.20;1.10;;;19.70;98.80;;;;;;5070804;28;20168;-64
2021/12/31 10:25:24;;;;;;;1.10;1.10;;;19.70;98.90;;;;;;5075413;28;20575;-64
2021/12/31 10:27:51;;;;;;;0.70;0.60;;;19.80;98.70;;;;;;5062408;28;20212;-64
2021/12/31 10:30:23;;;;;;;0.73;0.73;;;19.80;98.50;;;;;;5055096;28;20380;-65
2021/12/31 10:32:50;;;;;;;2.77;1.00;;;19.60;99.10;;;;;;5069251;28;20388;-65
2021/12/31 10:35:20;;;;;;;3.37;2.40;;;19.50;99.90;;;;;;5075124;28;20465;-66
2021/12/31 10:37:57;;;;;;;1.70;1.60;;;19.50;99.90;;;;;;5074951;28;20420;-63
2021/12/31 10:40:40;;;;;;;4.43;1.30;;;19.50;99.90;;;;;;5074909;28;20475;-66
2021/12/31 10:43:21;;;;;;;1.17;1.17;;;19.50;99.40;;;;;;5074848;28;20395;-67
2021/12/31 10:46:04;;;;;;;0.93;0.93;;;19.50;99.90;;;;;;5073563;28;20881;-64
2021/12/31 10:48:47;;;;;;;1.10;1.10;;;19.40;99.90;;;;;;5076675;28;20393;-64
2021/12/31 10:51:15;;;;;;;0.63;0.63;;;19.30;99.90;;;;;;5076045;28;20462;-64
2021/12/31 10:53:44;;;;;;;1.20;1.13;;;19.40;99.90;;;;;;5059639;28;20428;-62
2021/12/31 10:56:12;;;;;;;0.97;0.97;;;19.50;99.90;;;;;;5056647;28;20402;-64
2021/12/31 10:58:43;;;;;;;1.00;1.00;;;19.50;99.90;;;;;;5063269;28;20463;-64
2021/12/31 11:01:12;;;;;;;1.53;1.43;;;19.40;99.90;;;;;;5058877;28;20390;-65
2021/12/31 11:03:39;;;;;;;0.80;0.80;;;19.30;99.90;;;;;;5058102;28;20416;-65
2021/12/31 11:06:07;;;;;;;1.10;1.10;;;19.20;99.90;;;;;;5055472;28;20408;-67
2021/12/31 11:08:33;;;;;;;3.07;2.73;;;19.10;99.90;;;;;;5056584;28;20379;-66
2021/12/31 11:11:01;;;;;;;1.30;1.20;;;18.90;99.90;;;;;;5056119;28;20377;-67
2021/12/31 11:13:30;;;;;;;1.60;1.50;;;18.70;99.90;;;;;;5063442;28;20416;-63
2021/12/31 11:15:56;;;;;;;4.93;1.50;;;18.40;99.90;;;;;;5063734;28;20432;-65
2021/12/31 11:18:23;;;;;;;1.60;1.50;;;18.00;99.90;;;;;;5064684;28;20808;-64
2021/12/31 11:20:51;;;;;;;1.10;1.10;;;17.70;99.90;;;;;;5064545;28;20382;-62
2021/12/31 11:23:22;;;;;;;1.30;1.20;;;17.10;99.90;;;;;;5065224;28;20393;-62
2021/12/31 11:26:06;;;;;;;1.40;1.30;;;16.50;99.90;;;;;;5073390;28;20483;-62
2021/12/31 11:28:41;;;;;;;1.43;1.33;;;16.20;99.90;;;;;;5074184;28;20405;-62
2021/12/31 11:31:19;;;;;;;0.90;0.90;;;15.70;99.90;;;;;;5073677;28;20538;-63
2021/12/31 11:33:57;;;;;;;1.57;1.47;;;15.40;99.90;;;;;;5072636;28;20900;-64
2021/12/31 11:36:42;;;;;;;1.33;1.23;;;15.30;99.90;;;;;;5073924;28;20432;-62
2021/12/31 11:39:33;;;;;;;1.10;1.07;;;15.10;99.90;;;;;;5072911;28;20769;-65
2021/12/31 11:42:08;;;;;;;1.80;1.40;;;14.90;99.90;;;;;;5073031;28;20403;-62
2021/12/31 11:44:37;;;;;;;1.77;1.30;;;14.80;99.90;;;;;;5073805;28;20398;-62
2021/12/31 11:47:17;;;;;;;1.60;1.50;;;14.80;99.90;;;;;;5073218;28;20462;-62
2021/12/31 11:49:45;;;;;;;4.47;1.80;;;14.80;99.90;;;;;;5073752;28;20382;-62
2021/12/31 11:52:22;;;;;;;1.60;1.50;;;14.80;99.90;;;;;;5073539;28;20486;-63
2021/12/31 11:55:18;;;;;;;1.50;1.40;;;14.70;99.90;;;;;;5073963;28;20377;-62
2021/12/31 11:57:44;;;;;;;1.30;1.20;;;14.70;99.90;;;;;;5073477;28;20447;-62
2021/12/31 12:00:24;;;;;;;1.23;1.20;;;14.70;99.90;;;;;;5055407;28;20976;-62
2021/12/31 12:02:50;;;;;;;2.60;2.17;;;14.70;99.90;;;;;;5053439;28;20169;-63
2021/12/31 12:05:16;;;;;;;2.33;1.67;;;14.70;99.90;;;;;;5053532;28;20410;-66
2021/12/31 12:07:49;;;;;;;2.00;1.80;;;14.70;99.90;;;;;;5060857;28;20196;-62
2021/12/31 12:10:19;;;;;;;1.37;1.07;;;14.70;99.90;;;;;;5061075;28;20432;-63
2021/12/31 12:12:51;;;;;;;2.67;1.47;;;14.70;99.90;;;;;;5060879;28;20469;-62
2021/12/31 12:15:19;;;;;;;1.73;1.47;;;14.80;99.90;;;;;;5061149;28;20406;-62
2021/12/31 12:17:45;;;;;;;1.50;1.40;;;14.80;99.90;;;;;;5061042;28;20459;-62
2021/12/31 12:20:23;;;;;;;1.73;1.63;;;14.90;99.90;;;;;;5061848;28;20840;-62
2021/12/31 12:22:54;;;;;;;2.27;1.20;;;14.90;99.90;;;;;;5060431;28;20176;-63
2021/12/31 12:25:24;;;;;;;1.40;1.30;;;14.90;99.90;;;;;;5062837;28;20407;-63
2021/12/31 12:27:58;;;;;;;1.80;1.50;;;15.00;99.90;;;;;;5061709;28;20474;-63
2021/12/31 12:30:25;;;;;;;1.50;1.37;;;15.00;99.90;;;;;;5060151;28;20999;-62
2021/12/31 12:33:08;;;;;;;1.73;1.63;;;15.00;99.90;;;;;;5062486;28;20410;-63
2021/12/31 12:35:36;;;;;;;2.80;2.60;;;15.00;99.90;;;;;;5062468;28;20415;-63
2021/12/31 12:38:05;;;;;;;3.07;2.00;;;15.00;99.90;;;;;;5060578;28;20541;-63
2021/12/31 12:40:51;;;;;;;1.93;1.43;;;15.00;99.90;;;;;;5061649;28;20423;-63
2021/12/31 12:43:40;;;;;;;1.80;1.63;;;15.00;99.90;;;;;;5062125;28;20415;-63
2021/12/31 12:46:11;;;;;;;1.40;1.30;;;15.00;99.90;;;;;;5061543;28;20816;-61
2021/12/31 12:48:38;;;;;;;1.27;1.20;;;15.00;99.90;;;;;;5065024;28;20482;-64
2021/12/31 12:51:08;;;;;;;1.70;1.47;;;15.00;99.90;;;;;;5066668;28;20442;-63
2021/12/31 12:53:37;;;;;;;1.27;1.20;;;15.00;99.90;;;;;;5066292;28;20408;-63
2021/12/31 12:56:12;;;;;;;1.53;1.43;;;15.10;99.90;;;;;;5064529;28;20751;-63
2021/12/31 12:58:49;;;;;;;1.80;1.30;;;15.10;99.90;;;;;;5064561;28;20407;-63
2021/12/31 13:01:15;;;;;;;1.50;1.40;;;15.20;99.90;;;;;;5065846;28;20390;-64